createdAt,value
2023-03-02T00:00:16.503Z,70.05
2023-03-02T00:01:19.341Z,70.27
2023-03-02T00:02:22.335Z,69.99
2023-03-02T00:03:25.738Z,69.93
2023-03-02T00:04:50.071Z,69.40
2023-03-02T00:05:54.460Z,70.38
2023-03-02T00:06:59.009Z,70.27
2023-03-02T00:08:02.219Z,70.04
2023-03-02T00:09:06.109Z,70.55
2023-03-02T00:10:09.017Z,70.05
2023-03-02T00:11:11.891Z,70.13
2023-03-02T00:12:15.945Z,69.83
2023-03-02T00:13:18.689Z,69.05
2023-03-02T00:14:20.493Z,69.16
2023-03-02T00:15:23.309Z,69.11
2023-03-02T00:16:25.564Z,69.37
2023-03-02T00:17:28.857Z,69.32
2023-03-02T00:18:31.272Z,69.70
2023-03-02T00:19:36.338Z,69.17
2023-03-02T00:20:38.704Z,69.73
2023-03-02T00:21:43.033Z,70.34
2023-03-02T00:22:45.928Z,70.14
2023-03-02T00:23:48.675Z,70.63
2023-03-02T00:24:50.561Z,70.95
2023-03-02T00:25:53.274Z,70.00
2023-03-02T00:26:55.195Z,69.94
2023-03-02T00:27:58.089Z,70.35
2023-03-02T00:29:00.515Z,69.97
2023-03-02T00:30:03.500Z,70.09
2023-03-02T00:31:06.192Z,70.43
2023-03-02T00:32:09.204Z,70.16
2023-03-02T00:33:11.166Z,69.89
2023-03-02T00:34:13.980Z,69.90
2023-03-02T00:35:15.887Z,70.23
2023-03-02T00:36:19.267Z,69.52
2023-03-02T00:37:22.505Z,69.78
2023-03-02T00:38:25.729Z,70.26
2023-03-02T00:39:27.632Z,69.63
2023-03-02T00:40:30.850Z,69.92
2023-03-02T00:41:32.714Z,69.75
2023-03-02T00:42:35.495Z,69.57
2023-03-02T00:43:37.381Z,70.43
2023-03-02T00:44:40.168Z,69.90
2023-03-02T00:45:42.069Z,69.96
2023-03-02T00:46:45.579Z,70.17
2023-03-02T00:47:47.468Z,70.56
2023-03-02T00:48:50.597Z,70.55
2023-03-02T00:49:52.703Z,69.85
2023-03-02T00:50:55.594Z,70.10
2023-03-02T00:51:57.356Z,70.63
2023-03-02T00:53:01.545Z,70.38
2023-03-02T00:54:04.458Z,70.13
2023-03-02T00:55:09.298Z,70.05
2023-03-02T00:56:11.664Z,70.74
2023-03-02T00:57:19.275Z,70.95
2023-03-02T00:58:22.038Z,70.69
2023-03-02T00:59:28.161Z,70.08
2023-03-02T01:01:06.196Z,70.50
2023-03-02T01:02:11.606Z,70.31
2023-03-02T01:03:13.571Z,70.94
2023-03-02T01:04:16.356Z,70.51
2023-03-02T01:05:18.568Z,70.58
2023-03-02T01:06:22.342Z,70.36
2023-03-02T01:07:26.205Z,69.46
2023-03-02T01:08:30.454Z,69.40
2023-03-02T01:09:32.674Z,69.70
2023-03-02T01:10:35.646Z,69.51
2023-03-02T01:11:37.538Z,70.18
2023-03-02T01:12:41.017Z,70.34
2023-03-02T01:13:42.956Z,70.45
2023-03-02T01:14:48.682Z,70.31
2023-03-02T01:16:00.447Z,70.68
2023-03-02T01:17:03.601Z,70.53
2023-03-02T01:18:05.563Z,70.60
2023-03-02T01:19:08.932Z,70.53
2023-03-02T01:20:15.037Z,70.33
2023-03-02T01:21:19.258Z,69.84
2023-03-02T01:22:22.166Z,70.45
2023-03-02T01:23:25.074Z,70.79
2023-03-02T01:24:28.293Z,70.39
2023-03-02T01:25:31.153Z,70.86
2023-03-02T01:26:33.697Z,70.79
2023-03-02T01:27:36.747Z,70.88
2023-03-02T01:28:38.538Z,70.69
2023-03-02T01:29:41.557Z,70.49
2023-03-02T01:30:43.664Z,70.20
2023-03-02T01:31:46.509Z,69.97
2023-03-02T01:32:48.301Z,70.23
2023-03-02T01:33:51.629Z,70.75
2023-03-02T01:34:53.466Z,70.76
2023-03-02T01:35:56.329Z,70.49
2023-03-02T01:36:58.222Z,70.25
2023-03-02T01:38:00.978Z,70.14
2023-03-02T01:39:02.980Z,69.70
2023-03-02T01:40:09.301Z,69.81
2023-03-02T01:41:11.429Z,70.48
2023-03-02T01:42:14.287Z,70.36
2023-03-02T01:43:16.666Z,70.54
2023-03-02T01:44:40.703Z,70.59
2023-03-02T01:45:53.481Z,70.43
2023-03-02T01:47:18.729Z,71.23
2023-03-02T01:48:46.404Z,70.51
2023-03-02T01:49:55.217Z,71.12
2023-03-02T01:50:59.074Z,71.10
2023-03-02T01:52:02.054Z,70.13
2023-03-02T01:53:05.670Z,70.64
2023-03-02T01:54:10.371Z,70.72
2023-03-02T01:55:17.001Z,70.47
2023-03-02T01:56:21.772Z,70.21
2023-03-02T01:57:26.864Z,70.45
2023-03-02T01:58:29.280Z,70.42
2023-03-02T01:59:33.971Z,70.97
2023-03-02T02:00:38.414Z,71.23
2023-03-02T02:01:42.840Z,70.80
2023-03-02T02:02:44.870Z,70.99
2023-03-02T02:03:49.905Z,70.62
2023-03-02T02:04:53.007Z,71.32
2023-03-02T02:06:02.392Z,70.62
2023-03-02T02:07:06.299Z,70.66
2023-03-02T02:08:09.661Z,70.36
2023-03-02T02:09:15.449Z,70.42
2023-03-02T02:10:20.898Z,70.95
2023-03-02T02:11:22.788Z,70.10
2023-03-02T02:12:26.812Z,70.97
2023-03-02T02:13:28.673Z,71.08
2023-03-02T02:14:31.791Z,71.21
2023-03-02T02:15:34.185Z,70.78
2023-03-02T02:16:37.843Z,71.37
2023-03-02T02:17:40.471Z,70.59
2023-03-02T02:18:43.835Z,71.05
2023-03-02T02:19:54.289Z,71.10
2023-03-02T02:20:57.555Z,71.55
2023-03-02T02:21:59.813Z,71.23
2023-03-02T02:23:10.712Z,70.78
2023-03-02T02:24:16.719Z,71.23
2023-03-02T02:25:27.673Z,71.08
2023-03-02T02:26:32.362Z,71.49
2023-03-02T02:27:36.003Z,71.69
2023-03-02T02:28:42.446Z,70.80
2023-03-02T02:29:47.932Z,70.96
2023-03-02T02:30:51.874Z,70.72
2023-03-02T02:31:57.426Z,70.75
2023-03-02T02:33:00.175Z,70.78
2023-03-02T02:34:10.757Z,70.88
2023-03-02T02:35:16.822Z,70.84
2023-03-02T02:36:22.275Z,71.67
2023-03-02T02:37:29.090Z,70.76
2023-03-02T02:38:32.392Z,71.19
2023-03-02T02:39:36.632Z,70.56
2023-03-02T02:40:43.296Z,70.17
2023-03-02T02:41:51.380Z,70.76
2023-03-02T02:42:54.798Z,70.43
2023-03-02T02:43:56.625Z,71.19
2023-03-02T02:45:01.507Z,71.24
2023-03-02T02:46:03.738Z,71.13
2023-03-02T02:47:13.242Z,71.61
2023-03-02T02:48:17.006Z,70.98
2023-03-02T02:49:28.993Z,71.47
2023-03-02T02:50:33.280Z,70.89
2023-03-02T02:51:36.240Z,71.18
2023-03-02T02:52:39.545Z,71.22
2023-03-02T02:53:45.357Z,71.66
2023-03-02T02:54:48.983Z,70.73
2023-03-02T02:55:53.483Z,70.65
2023-03-02T02:56:58.024Z,71.20
2023-03-02T02:58:09.209Z,70.47
2023-03-02T02:59:15.219Z,71.05
2023-03-02T03:00:20.842Z,71.02
2023-03-02T03:01:25.906Z,70.86
2023-03-02T03:02:31.430Z,71.55
2023-03-02T03:03:35.507Z,71.24
2023-03-02T03:04:41.990Z,70.85
2023-03-02T03:05:43.885Z,71.40
2023-03-02T03:06:52.022Z,71.64
2023-03-02T03:08:07.929Z,71.47
2023-03-02T03:09:10.584Z,70.52
2023-03-02T03:10:21.533Z,71.32
2023-03-02T03:11:26.416Z,70.67
2023-03-02T03:12:33.551Z,71.20
2023-03-02T03:13:35.432Z,71.04
2023-03-02T03:14:41.410Z,70.98
2023-03-02T03:15:44.926Z,71.72
2023-03-02T03:16:50.749Z,71.35
2023-03-02T03:17:55.209Z,71.12
2023-03-02T03:19:02.859Z,70.99
2023-03-02T03:20:07.548Z,71.95
2023-03-02T03:21:11.962Z,71.65
2023-03-02T03:22:16.430Z,72.27
2023-03-02T03:23:19.631Z,72.02
2023-03-02T03:24:23.162Z,71.93
2023-03-02T03:25:26.201Z,71.61
2023-03-02T03:26:31.493Z,70.97
2023-03-02T03:27:34.905Z,70.81
2023-03-02T03:28:39.233Z,70.77
2023-03-02T03:29:46.858Z,71.21
2023-03-02T03:30:49.979Z,71.12
2023-03-02T03:31:54.275Z,71.15
2023-03-02T03:32:56.968Z,71.95
2023-03-02T03:34:00.585Z,72.06
2023-03-02T03:35:08.780Z,71.19
2023-03-02T03:36:10.953Z,71.80
2023-03-02T03:37:16.794Z,71.40
2023-03-02T03:38:18.704Z,71.58
2023-03-02T03:39:22.485Z,72.30
2023-03-02T03:40:25.363Z,71.36
2023-03-02T03:41:28.726Z,71.74
2023-03-02T03:42:30.690Z,71.30
2023-03-02T03:43:36.046Z,71.94
2023-03-02T03:44:38.233Z,71.62
2023-03-02T03:45:41.431Z,70.90
2023-03-02T03:46:43.577Z,71.45
2023-03-02T03:47:46.754Z,71.14
2023-03-02T03:48:48.602Z,71.84
2023-03-02T03:49:51.571Z,71.83
2023-03-02T03:50:53.719Z,71.81
2023-03-02T03:51:57.170Z,71.20
2023-03-02T03:52:59.194Z,71.10
2023-03-02T03:54:04.480Z,70.65
2023-03-02T03:55:12.612Z,70.60
2023-03-02T03:56:17.390Z,71.17
2023-03-02T03:57:19.551Z,70.46
2023-03-02T03:58:22.591Z,71.64
2023-03-02T03:59:27.194Z,71.79
2023-03-02T04:00:33.845Z,71.53
2023-03-02T04:01:43.092Z,70.95
2023-03-02T04:02:46.415Z,72.05
2023-03-02T04:03:48.401Z,72.03
2023-03-02T04:04:51.559Z,71.17
2023-03-02T04:05:54.529Z,72.17
2023-03-02T04:06:57.753Z,72.00
2023-03-02T04:08:02.189Z,72.23
2023-03-02T04:09:06.462Z,71.76
2023-03-02T04:10:10.950Z,71.19
2023-03-02T04:11:15.385Z,71.21
2023-03-02T04:12:17.270Z,71.09
2023-03-02T04:13:26.183Z,71.82
2023-03-02T04:14:29.560Z,71.74
2023-03-02T04:15:32.743Z,71.73
2023-03-02T04:16:36.072Z,70.82
2023-03-02T04:17:38.878Z,70.96
2023-03-02T04:18:41.213Z,71.72
2023-03-02T04:19:45.625Z,71.04
2023-03-02T04:20:47.504Z,71.36
2023-03-02T04:21:53.082Z,71.22
2023-03-02T04:22:56.498Z,71.49
2023-03-02T04:23:59.453Z,72.00
2023-03-02T04:25:01.310Z,71.87
2023-03-02T04:26:05.208Z,71.44
2023-03-02T04:27:07.033Z,71.59
2023-03-02T04:28:11.122Z,72.47
2023-03-02T04:29:15.048Z,71.85
2023-03-02T04:30:23.545Z,71.33
2023-03-02T04:31:25.901Z,71.37
2023-03-02T04:32:28.839Z,72.27
2023-03-02T04:33:31.302Z,71.73
2023-03-02T04:34:34.627Z,72.40
2023-03-02T04:35:37.034Z,72.51
2023-03-02T04:36:40.984Z,72.28
2023-03-02T04:37:47.055Z,71.98
2023-03-02T04:38:50.317Z,72.18
2023-03-02T04:39:52.901Z,72.07
2023-03-02T04:40:55.775Z,71.89
2023-03-02T04:41:57.606Z,72.22
2023-03-02T04:43:00.369Z,71.40
2023-03-02T04:44:02.282Z,72.07
2023-03-02T04:45:05.795Z,72.11
2023-03-02T04:46:09.826Z,71.40
2023-03-02T04:47:12.781Z,71.45
2023-03-02T04:48:14.981Z,71.14
2023-03-02T04:49:18.848Z,70.95
2023-03-02T04:50:20.889Z,71.35
2023-03-02T04:51:26.159Z,71.31
2023-03-02T04:52:27.985Z,71.24
2023-03-02T04:53:30.802Z,70.87
2023-03-02T04:54:32.984Z,71.02
2023-03-02T04:55:36.225Z,71.82
2023-03-02T04:56:38.414Z,71.53
2023-03-02T04:57:41.137Z,71.30
2023-03-02T04:58:42.934Z,72.25
2023-03-02T04:59:45.777Z,71.48
2023-03-02T05:00:47.590Z,71.68
2023-03-02T05:01:51.766Z,71.92
2023-03-02T05:02:53.661Z,72.08
2023-03-02T05:03:56.378Z,71.71
2023-03-02T05:04:58.282Z,71.65
2023-03-02T05:06:02.407Z,71.87
2023-03-02T05:07:04.195Z,72.25
2023-03-02T05:08:06.969Z,71.41
2023-03-02T05:09:08.843Z,72.20
2023-03-02T05:10:12.475Z,71.62
2023-03-02T05:11:22.373Z,71.88
2023-03-02T05:12:25.453Z,71.79
2023-03-02T05:13:27.559Z,72.16
2023-03-02T05:14:31.943Z,72.39
2023-03-02T05:15:37.264Z,72.38
2023-03-02T05:16:42.107Z,71.74
2023-03-02T05:17:45.378Z,71.27
2023-03-02T05:18:49.068Z,72.48
2023-03-02T05:19:50.835Z,72.05
2023-03-02T05:20:54.859Z,72.52
2023-03-02T05:21:57.573Z,71.86
2023-03-02T05:23:02.190Z,71.51
2023-03-02T05:24:04.580Z,71.86
2023-03-02T05:25:08.328Z,72.70
2023-03-02T05:26:10.665Z,72.87
2023-03-02T05:27:13.437Z,72.77
2023-03-02T05:28:15.557Z,71.94
2023-03-02T05:29:18.312Z,71.93
2023-03-02T05:30:20.641Z,72.08
2023-03-02T05:31:25.420Z,72.36
2023-03-02T05:32:28.061Z,72.70
2023-03-02T05:33:32.391Z,72.76
2023-03-02T05:34:34.239Z,72.62
2023-03-02T05:35:37.469Z,71.52
2023-03-02T05:36:39.381Z,72.48
2023-03-02T05:37:44.589Z,71.90
2023-03-02T05:38:47.359Z,71.72
2023-03-02T05:39:49.161Z,71.50
2023-03-02T05:40:52.316Z,71.61
2023-03-02T05:41:54.058Z,71.49
2023-03-02T05:42:56.955Z,71.66
2023-03-02T05:43:59.125Z,71.96
2023-03-02T05:45:01.900Z,71.64
2023-03-02T05:46:03.954Z,71.95
2023-03-02T05:47:07.183Z,72.22
2023-03-02T05:48:10.420Z,72.53
2023-03-02T05:49:14.607Z,71.55
2023-03-02T05:50:16.664Z,71.79
2023-03-02T05:51:19.400Z,71.96
2023-03-02T05:52:21.165Z,72.53
2023-03-02T05:53:24.111Z,72.44
2023-03-02T05:54:26.037Z,72.26
2023-03-02T05:55:29.009Z,73.28
2023-03-02T05:56:31.130Z,73.53
2023-03-02T05:57:34.492Z,73.53
2023-03-02T05:58:36.357Z,73.04
2023-03-02T05:59:39.231Z,72.88
2023-03-02T06:00:41.206Z,72.46
2023-03-02T06:01:44.001Z,72.55
2023-03-02T06:02:46.020Z,72.43
2023-03-02T06:03:51.268Z,72.27
2023-03-02T06:04:54.424Z,72.60
2023-03-02T06:05:57.221Z,72.66
2023-03-02T06:06:58.993Z,73.01
2023-03-02T06:08:01.778Z,72.53
2023-03-02T06:09:04.071Z,72.66
2023-03-02T06:10:08.002Z,72.61
2023-03-02T06:11:10.092Z,72.79
2023-03-02T06:12:12.897Z,72.61
2023-03-02T06:13:15.667Z,72.18
2023-03-02T06:14:18.648Z,72.12
2023-03-02T06:15:20.846Z,72.36
2023-03-02T06:16:23.659Z,72.79
2023-03-02T06:17:25.579Z,72.54
2023-03-02T06:18:28.423Z,72.04
2023-03-02T06:19:30.319Z,73.12
2023-03-02T06:20:34.426Z,73.10
2023-03-02T06:21:36.521Z,73.24
2023-03-02T06:22:41.167Z,72.48
2023-03-02T06:23:43.954Z,72.50
2023-03-02T06:24:45.884Z,73.10
2023-03-02T06:25:49.087Z,73.86
2023-03-02T06:26:52.864Z,74.18
2023-03-02T06:27:55.708Z,73.80
2023-03-02T06:28:58.873Z,73.66
2023-03-02T06:30:00.895Z,73.96
2023-03-02T06:31:04.001Z,74.67
2023-03-02T06:32:06.092Z,75.00
2023-03-02T06:33:08.880Z,75.92
2023-03-02T06:34:10.964Z,76.09
2023-03-02T06:35:14.283Z,75.99
2023-03-02T06:36:17.597Z,76.22
2023-03-02T06:37:20.677Z,76.42
2023-03-02T06:38:22.703Z,76.29
2023-03-02T06:39:25.486Z,76.44
2023-03-02T06:40:27.641Z,76.65
2023-03-02T06:41:30.679Z,76.97
2023-03-02T06:42:32.537Z,76.94
2023-03-02T06:43:35.718Z,77.08
2023-03-02T06:44:37.480Z,76.63
2023-03-02T06:45:40.396Z,76.64
2023-03-02T06:46:43.085Z,76.84
2023-03-02T06:47:45.808Z,76.21
2023-03-02T06:48:47.580Z,75.58
2023-03-02T06:49:50.431Z,75.76
2023-03-02T06:50:52.572Z,75.93
2023-03-02T06:51:56.628Z,75.99
2023-03-02T06:52:58.517Z,75.18
2023-03-02T06:54:01.333Z,75.31
2023-03-02T06:55:03.222Z,75.15
2023-03-02T06:56:07.107Z,74.80
2023-03-02T06:57:08.894Z,74.87
2023-03-02T06:58:13.145Z,73.88
2023-03-02T06:59:15.017Z,73.94
2023-03-02T07:00:26.420Z,74.06
2023-03-02T07:01:33.052Z,73.23
2023-03-02T07:02:36.271Z,73.47
2023-03-02T07:03:38.082Z,74.24
2023-03-02T07:04:41.026Z,74.53
2023-03-02T07:05:45.745Z,74.93
2023-03-02T07:06:49.063Z,75.12
2023-03-02T07:07:52.533Z,75.06
2023-03-02T07:08:55.294Z,75.34
2023-03-02T07:09:57.104Z,75.17
2023-03-02T07:10:59.873Z,74.89
2023-03-02T07:12:02.030Z,74.59
2023-03-02T07:13:04.782Z,74.50
2023-03-02T07:14:06.616Z,74.04
2023-03-02T07:15:13.980Z,73.36
2023-03-02T07:16:15.990Z,73.87
2023-03-02T07:17:18.885Z,73.89
2023-03-02T07:18:20.739Z,73.66
2023-03-02T07:19:23.451Z,73.56
2023-03-02T07:20:26.668Z,72.96
2023-03-02T07:21:28.574Z,72.26
2023-03-02T07:22:31.648Z,72.31
2023-03-02T07:23:35.904Z,71.75
2023-03-02T07:24:37.741Z,71.40
2023-03-02T07:25:40.513Z,71.79
2023-03-02T07:26:42.298Z,70.94
2023-03-02T07:27:45.238Z,70.55
2023-03-02T07:28:47.029Z,70.41
2023-03-02T07:29:49.807Z,70.08
2023-03-02T07:30:51.689Z,70.24
2023-03-02T07:31:57.225Z,70.42
2023-03-02T07:33:00.144Z,69.78
2023-03-02T07:34:02.367Z,70.20
2023-03-02T07:35:05.447Z,70.25
2023-03-02T07:36:08.387Z,70.28
2023-03-02T07:37:11.170Z,70.47
2023-03-02T07:38:12.996Z,71.22
2023-03-02T07:39:17.099Z,70.70
2023-03-02T07:40:19.336Z,70.87
2023-03-02T07:41:22.762Z,71.69
2023-03-02T07:42:24.509Z,71.86
2023-03-02T07:43:35.886Z,71.54
2023-03-02T07:44:37.625Z,71.96
2023-03-02T07:45:40.345Z,72.11
2023-03-02T07:46:42.225Z,71.91
2023-03-02T07:47:44.975Z,71.40
2023-03-02T07:48:46.879Z,71.09
2023-03-02T07:49:49.756Z,70.93
2023-03-02T07:50:51.515Z,71.03
2023-03-02T07:51:54.269Z,71.05
2023-03-02T07:52:56.917Z,71.01
2023-03-02T07:54:02.849Z,70.76
2023-03-02T07:55:07.564Z,70.35
2023-03-02T07:56:10.806Z,69.90
2023-03-02T07:57:16.055Z,69.47
2023-03-02T07:58:17.844Z,69.61
2023-03-02T07:59:21.166Z,69.52
2023-03-02T08:00:23.437Z,69.20
2023-03-02T08:01:26.305Z,69.16
2023-03-02T08:02:28.455Z,68.58
2023-03-02T08:03:31.234Z,68.81
2023-03-02T08:04:35.819Z,68.59
2023-03-02T08:05:38.752Z,68.16
2023-03-02T08:06:42.453Z,68.06
2023-03-02T08:07:47.423Z,68.00
2023-03-02T08:08:49.651Z,67.90
2023-03-02T08:09:52.518Z,68.19
2023-03-02T08:10:55.867Z,67.90
2023-03-02T08:11:58.841Z,67.80
2023-03-02T08:13:00.812Z,67.50
2023-03-02T08:14:04.414Z,67.53
2023-03-02T08:15:07.195Z,67.44
2023-03-02T08:16:12.415Z,67.11
2023-03-02T08:17:15.194Z,67.27
2023-03-02T08:18:17.131Z,67.01
2023-03-02T08:19:20.547Z,66.53
2023-03-02T08:20:22.432Z,66.61
2023-03-02T08:21:26.410Z,66.35
2023-03-02T08:22:29.130Z,66.30
2023-03-02T08:23:30.913Z,66.30
2023-03-02T08:24:33.979Z,66.14
2023-03-02T08:25:35.893Z,65.96
2023-03-02T08:26:40.337Z,65.87
2023-03-02T08:27:43.782Z,65.22
2023-03-02T08:28:46.765Z,65.63
2023-03-02T08:29:48.614Z,65.18
2023-03-02T08:30:56.733Z,65.35
2023-03-02T08:31:59.096Z,65.13
2023-03-02T08:33:05.910Z,64.80
2023-03-02T08:34:09.832Z,64.42
2023-03-02T08:35:12.812Z,63.95
2023-03-02T08:36:17.417Z,64.21
2023-03-02T08:37:38.801Z,64.18
2023-03-02T08:38:41.100Z,63.40
2023-03-02T08:39:43.870Z,62.87
2023-03-02T08:40:45.617Z,62.58
2023-03-02T08:41:51.048Z,62.42
2023-03-02T08:42:56.999Z,62.34
2023-03-02T08:43:59.754Z,62.24
2023-03-02T08:45:01.577Z,61.91
2023-03-02T08:46:04.796Z,61.77
2023-03-02T08:47:06.669Z,61.34
2023-03-02T08:48:09.908Z,61.74
2023-03-02T08:49:11.721Z,61.81
2023-03-02T08:50:14.451Z,61.46
2023-03-02T08:51:19.831Z,61.63
2023-03-02T08:52:22.599Z,61.06
2023-03-02T08:53:25.111Z,61.02
2023-03-02T08:54:28.641Z,60.59
2023-03-02T08:55:30.489Z,60.73
2023-03-02T08:56:35.546Z,60.68
2023-03-02T08:57:41.604Z,60.05
2023-03-02T08:58:44.385Z,60.50
2023-03-02T08:59:46.124Z,59.64
2023-03-02T09:00:49.222Z,60.16
2023-03-02T09:01:51.996Z,59.32
2023-03-02T09:02:54.089Z,59.46
2023-03-02T09:03:57.552Z,59.54
2023-03-02T09:05:00.381Z,59.02
2023-03-02T09:06:03.188Z,58.03
2023-03-02T09:07:06.167Z,57.98
2023-03-02T09:08:08.053Z,57.66
2023-03-02T09:09:11.954Z,58.01
2023-03-02T09:10:14.804Z,57.82
2023-03-02T09:11:18.061Z,57.18
2023-03-02T09:12:20.811Z,58.19
2023-03-02T09:13:24.054Z,57.42
2023-03-02T09:14:27.294Z,57.45
2023-03-02T09:15:29.107Z,56.60
2023-03-02T09:16:52.648Z,55.86
2023-03-02T09:17:54.607Z,55.23
2023-03-02T09:18:57.400Z,55.21
2023-03-02T09:20:00.687Z,53.69
2023-03-02T09:21:03.542Z,54.01
2023-03-02T09:22:05.288Z,53.24
2023-03-02T09:23:08.057Z,53.22
2023-03-02T09:24:10.163Z,53.57
2023-03-02T09:25:12.988Z,52.94
2023-03-02T09:26:14.773Z,52.90
2023-03-02T09:27:17.692Z,52.63
2023-03-02T09:28:21.580Z,53.01
2023-03-02T09:29:25.944Z,53.03
2023-03-02T09:30:28.612Z,53.36
2023-03-02T09:31:31.793Z,51.84
2023-03-02T09:32:34.947Z,52.22
2023-03-02T09:33:57.148Z,51.19
2023-03-02T09:35:00.286Z,51.03
2023-03-02T09:36:05.857Z,51.68
2023-03-02T09:37:08.938Z,51.40
2023-03-02T09:38:12.829Z,51.29
2023-03-02T09:39:15.606Z,51.10
2023-03-02T09:40:20.005Z,51.33
2023-03-02T09:41:50.712Z,50.79
2023-03-02T09:43:11.980Z,51.04
2023-03-02T09:44:35.985Z,51.61
2023-03-02T09:46:06.051Z,50.43
2023-03-02T09:47:14.149Z,51.05
2023-03-02T09:48:24.475Z,51.41
2023-03-02T09:49:33.177Z,50.90
2023-03-02T09:50:38.091Z,50.20
2023-03-02T09:51:45.084Z,51.33
2023-03-02T09:52:52.351Z,51.20
2023-03-02T09:54:03.294Z,50.90
2023-03-02T09:55:14.757Z,50.70
2023-03-02T09:56:19.154Z,51.15
2023-03-02T09:57:22.570Z,51.73
2023-03-02T09:58:27.744Z,50.61
2023-03-02T09:59:33.737Z,50.43
2023-03-02T10:00:40.403Z,50.69
2023-03-02T10:01:47.012Z,50.27
2023-03-02T10:02:50.817Z,50.27
2023-03-02T10:03:57.353Z,49.27
2023-03-02T10:05:03.548Z,50.02
2023-03-02T10:06:05.689Z,50.16
2023-03-02T10:07:13.100Z,50.61
2023-03-02T10:08:17.463Z,50.73
2023-03-02T10:09:20.209Z,50.84
2023-03-02T10:10:26.524Z,50.17
2023-03-02T10:11:36.630Z,50.68
2023-03-02T10:12:46.917Z,50.34
2023-03-02T10:13:52.394Z,50.17
2023-03-02T10:14:57.389Z,50.02
2023-03-02T10:16:15.952Z,50.04
2023-03-02T10:17:39.183Z,50.04
2023-03-02T10:18:45.458Z,50.50
2023-03-02T10:19:53.476Z,49.77
2023-03-02T10:21:01.157Z,50.69
2023-03-02T10:22:14.387Z,50.40
2023-03-02T10:23:29.260Z,50.58
2023-03-02T10:24:35.261Z,51.01
2023-03-02T10:25:43.641Z,50.99
2023-03-02T10:26:48.240Z,50.54
2023-03-02T10:27:51.665Z,50.55
2023-03-02T10:29:00.059Z,50.86
2023-03-02T10:30:06.477Z,50.38
2023-03-02T10:31:15.223Z,50.37
2023-03-02T10:32:21.783Z,50.25
2023-03-02T10:33:23.968Z,49.47
2023-03-02T10:34:29.964Z,50.44
2023-03-02T10:35:33.048Z,50.05
2023-03-02T10:36:39.983Z,49.94
2023-03-02T10:37:42.877Z,50.64
2023-03-02T10:38:45.514Z,50.09
2023-03-02T10:39:48.539Z,49.91
2023-03-02T10:40:56.978Z,50.41
2023-03-02T10:42:03.076Z,50.07
2023-03-02T10:43:06.388Z,50.27
2023-03-02T10:44:15.562Z,50.71
2023-03-02T10:45:24.749Z,50.15
2023-03-02T10:46:41.063Z,51.20
2023-03-02T10:47:43.133Z,50.74
2023-03-02T10:48:51.101Z,50.93
2023-03-02T10:49:54.642Z,50.80
2023-03-02T10:50:58.295Z,50.68
2023-03-02T10:52:02.720Z,50.53
2023-03-02T10:53:08.618Z,50.67
2023-03-02T10:54:11.709Z,50.71
2023-03-02T10:55:16.852Z,50.28
2023-03-02T10:56:20.855Z,50.71
2023-03-02T10:57:34.181Z,50.42
2023-03-02T10:58:37.037Z,50.39
2023-03-02T10:59:44.680Z,50.21
2023-03-02T11:00:57.022Z,49.75
2023-03-02T11:02:02.520Z,50.02
2023-03-02T11:03:18.732Z,49.83
2023-03-02T11:04:20.707Z,49.44
2023-03-02T11:05:29.035Z,49.49
2023-03-02T11:06:32.143Z,48.96
2023-03-02T11:07:34.083Z,49.13
2023-03-02T11:08:36.936Z,49.06
2023-03-02T11:09:38.928Z,49.05
2023-03-02T11:10:43.125Z,49.76
2023-03-02T11:11:49.961Z,49.55
2023-03-02T11:12:53.865Z,49.71
2023-03-02T11:13:57.233Z,49.71
2023-03-02T11:15:18.903Z,49.65
2023-03-02T11:16:28.417Z,49.08
2023-03-02T11:17:34.441Z,49.11
2023-03-02T11:18:39.721Z,49.75
2023-03-02T11:19:42.198Z,49.76
2023-03-02T11:20:48.645Z,49.75
2023-03-02T11:21:55.268Z,48.94
2023-03-02T11:23:04.039Z,49.50
2023-03-02T11:24:12.258Z,48.81
2023-03-02T11:25:23.781Z,48.15
2023-03-02T11:26:29.241Z,48.27
2023-03-02T11:27:33.939Z,48.22
2023-03-02T11:28:45.611Z,48.29
2023-03-02T11:29:51.360Z,48.15
2023-03-02T11:30:56.592Z,48.08
2023-03-02T11:32:05.449Z,47.78
2023-03-02T11:33:15.294Z,47.04
2023-03-02T11:34:26.122Z,47.10
2023-03-02T11:35:32.862Z,47.12
2023-03-02T11:36:44.951Z,47.50
2023-03-02T11:37:49.967Z,47.41
2023-03-02T11:38:54.958Z,47.29
2023-03-02T11:40:17.163Z,47.50
2023-03-02T11:41:29.697Z,47.17
2023-03-02T11:42:35.524Z,47.54
2023-03-02T11:43:37.445Z,47.27
2023-03-02T11:44:40.291Z,47.21
2023-03-02T11:45:45.372Z,47.27
2023-03-02T11:46:49.706Z,46.94
2023-03-02T11:48:02.429Z,47.68
2023-03-02T11:49:12.688Z,47.13
2023-03-02T11:50:16.595Z,47.82
2023-03-02T11:51:21.469Z,47.33
2023-03-02T11:52:26.832Z,47.13
2023-03-02T11:53:34.502Z,47.19
2023-03-02T11:54:39.789Z,46.86
2023-03-02T11:55:45.771Z,46.87
2023-03-02T11:56:47.640Z,46.89
2023-03-02T11:57:52.167Z,47.39
2023-03-02T11:58:56.707Z,47.60
2023-03-02T12:00:00.658Z,47.11
2023-03-02T12:01:04.555Z,46.72
2023-03-02T12:02:11.797Z,47.43
2023-03-02T12:03:21.517Z,46.88
2023-03-02T12:04:32.292Z,47.32
2023-03-02T12:05:37.041Z,46.54
2023-03-02T12:06:40.175Z,46.20
2023-03-02T12:08:03.022Z,46.45
2023-03-02T12:09:30.769Z,47.20
2023-03-02T12:10:38.230Z,46.53
2023-03-02T12:11:41.957Z,46.90
2023-03-02T12:12:48.409Z,46.56
2023-03-02T12:14:00.717Z,45.98
2023-03-02T12:15:03.844Z,45.89
2023-03-02T12:16:20.503Z,45.91
2023-03-02T12:17:31.439Z,45.78
2023-03-02T12:18:46.113Z,45.95
2023-03-02T12:19:51.273Z,45.95
2023-03-02T12:21:00.534Z,45.64
2023-03-02T12:22:07.360Z,45.14
2023-03-02T12:23:21.114Z,44.58
2023-03-02T12:24:26.092Z,45.59
2023-03-02T12:25:38.013Z,46.43
2023-03-02T12:26:40.770Z,45.58
2023-03-02T12:27:42.699Z,45.67
2023-03-02T12:28:58.995Z,45.01
2023-03-02T12:30:24.275Z,45.47
2023-03-02T12:31:28.197Z,46.00
2023-03-02T12:32:31.410Z,45.46
2023-03-02T12:33:41.756Z,46.20
2023-03-02T12:34:46.556Z,44.92
2023-03-02T12:35:51.896Z,45.50
2023-03-02T12:36:57.597Z,45.70
2023-03-02T12:38:01.742Z,45.43
2023-03-02T12:39:15.714Z,44.88
2023-03-02T12:40:25.561Z,45.59
2023-03-02T12:41:43.357Z,44.21
2023-03-02T12:42:51.657Z,44.62
2023-03-02T12:44:03.165Z,45.53
2023-03-02T12:45:14.305Z,44.40
2023-03-02T12:46:29.755Z,43.92
2023-03-02T12:47:33.099Z,44.14
2023-03-02T12:49:03.353Z,43.06
2023-03-02T12:50:07.597Z,43.38
2023-03-02T12:51:18.395Z,43.66
2023-03-02T12:52:31.360Z,43.48
2023-03-02T12:53:33.930Z,43.60
2023-03-02T12:54:36.757Z,42.76
2023-03-02T12:55:38.932Z,42.13
2023-03-02T12:56:41.783Z,42.40
2023-03-02T12:57:49.046Z,42.62
2023-03-02T12:58:51.214Z,42.24
2023-03-02T12:59:55.023Z,40.84
2023-03-02T13:00:59.847Z,42.06
2023-03-02T13:02:15.537Z,42.68
2023-03-02T13:03:18.643Z,42.85
2023-03-02T13:04:22.226Z,42.95
2023-03-02T13:05:26.425Z,42.31
2023-03-02T13:06:31.611Z,41.77
2023-03-02T13:07:38.515Z,41.84
2023-03-02T13:08:42.749Z,41.82
2023-03-02T13:09:56.108Z,41.80
2023-03-02T13:11:01.814Z,41.46
2023-03-02T13:12:04.843Z,41.32
2023-03-02T13:13:17.519Z,40.67
2023-03-02T13:14:21.903Z,41.03
2023-03-02T13:15:24.688Z,41.41
2023-03-02T13:16:29.780Z,41.19
2023-03-02T13:17:33.323Z,41.17
2023-03-02T13:18:37.189Z,41.66
2023-03-02T13:19:39.950Z,41.15
2023-03-02T13:20:42.971Z,40.90
2023-03-02T13:21:46.125Z,40.69
2023-03-02T13:22:49.044Z,40.86
2023-03-02T13:23:51.800Z,40.93
2023-03-02T13:25:00.207Z,40.75
2023-03-02T13:26:04.717Z,40.30
2023-03-02T13:27:14.411Z,40.08
2023-03-02T13:28:27.426Z,40.36
2023-03-02T13:29:31.773Z,40.43
2023-03-02T13:30:37.060Z,40.20
2023-03-02T13:31:39.038Z,40.11
2023-03-02T13:32:43.168Z,39.45
2023-03-02T13:33:47.528Z,39.86
2023-03-02T13:34:51.884Z,39.42
2023-03-02T13:35:55.981Z,39.68
2023-03-02T13:36:59.405Z,39.58
2023-03-02T13:38:05.546Z,39.73
2023-03-02T13:39:16.271Z,39.30
2023-03-02T13:40:35.003Z,39.87
2023-03-02T13:41:40.638Z,39.88
2023-03-02T13:42:42.605Z,39.65
2023-03-02T13:43:45.780Z,39.33
2023-03-02T13:44:47.548Z,39.69
2023-03-02T13:45:55.751Z,39.63
2023-03-02T13:46:59.510Z,39.78
2023-03-02T13:48:15.235Z,39.23
2023-03-02T13:49:27.692Z,39.05
2023-03-02T13:50:31.421Z,39.00
2023-03-02T13:51:37.093Z,39.00
2023-03-02T13:52:41.529Z,38.64
2023-03-02T13:53:51.867Z,39.01
2023-03-02T13:54:54.753Z,39.01
2023-03-02T13:56:00.191Z,39.01